Time,TemperatureF,DewpointF,PressureIn,WindDirection,WindDirectionDegrees,WindSpeedMPH,WindSpeedGustMPH,Humidity,HourlyPrecipIn,Conditions,Clouds,dailyrainin,SoftwareType,DateUTC
2013-02-24 00:00:00,19.7,14.8,30.35,South,188,0.0,0.0,81,0.00,,---,0.02,VWS V14.00,2013-02-24 08:00:00,
2013-02-24 00:05:00,19.5,14.6,30.35,South,188,0.0,0.0,81,0.00,,---,0.00,VWS V14.00,2013-02-24 08:05:00,
2013-02-24 00:10:00,19.4,13.7,30.35,South,188,0.0,0.0,78,0.00,,---,0.00,VWS V14.00,2013-02-24 08:10:00,
2013-02-24 00:15:00,19.4,13.7,30.35,South,188,0.0,0.0,78,0.00,,---,0.00,VWS V14.00,2013-02-24 08:15:00,
2013-02-24 00:20:00,19.4,14.0,30.35,South,188,0.0,0.0,79,0.00,,---,0.00,VWS V14.00,2013-02-24 08:20:00,
2013-02-24 00:25:00,19.5,14.1,30.35,South,188,0.0,0.0,79,0.00,,---,0.00,VWS V14.00,2013-02-24 08:25:00,
2013-02-24 00:30:00,19.5,14.1,30.36,South,188,0.0,0.0,79,0.00,,---,0.00,VWS V14.00,2013-02-24 08:30:00,
2013-02-24 00:35:00,19.5,14.1,30.36,South,188,0.0,0.0,79,0.00,,---,0.00,VWS V14.00,2013-02-24 08:35:00,
2013-02-24 00:40:00,19.9,14.7,30.36,South,188,0.0,2.0,80,0.00,,---,0.00,VWS V14.00,2013-02-24 08:40:00,
2013-02-24 00:45:00,20.6,15.4,30.36,South,188,0.0,2.0,80,0.00,,---,0.00,VWS V14.00,2013-02-24 08:45:00,
2013-02-24 00:50:00,21.1,15.3,30.36,South,188,0.0,2.0,78,0.00,,---,0.00,VWS V14.00,2013-02-24 08:50:00,
2013-02-24 00:55:00,21.1,15.0,30.36,South,188,1.0,2.0,77,0.00,,---,0.00,VWS V14.00,2013-02-24 08:55:00,
2013-02-24 01:00:00,21.1,14.7,30.36,South,188,0.0,3.0,76,0.00,,---,0.00,VWS V14.00,2013-02-24 09:00:00,
2013-02-24 01:05:00,21.0,14.6,30.36,South,188,0.0,1.0,76,0.00,,---,0.00,VWS V14.00,2013-02-24 09:05:00,
2013-02-24 01:10:00,20.8,14.4,30.36,South,188,0.0,0.0,76,0.00,,---,0.00,VWS V14.00,2013-02-24 09:10:00,
2013-02-24 01:16:00,20.6,14.2,30.36,South,188,0.0,0.0,76,0.00,,---,0.00,VWS V14.00,2013-02-24 09:16:00,
2013-02-24 01:21:00,20.3,14.0,30.36,South,188,0.0,0.0,76,0.00,,---,0.00,VWS V14.00,2013-02-24 09:21:00,
2013-02-24 01:26:00,20.2,13.9,30.36,South,188,0.0,0.0,76,0.00,,---,0.00,VWS V14.00,2013-02-24 09:26:00,
2013-02-24 01:31:00,20.8,14.7,30.36,South,188,0.0,0.0,77,0.00,,---,0.00,VWS V14.00,2013-02-24 09:31:00,
2013-02-24 01:36:00,21.1,15.0,30.36,South,188,0.0,1.0,77,0.00,,---,0.00,VWS V14.00,2013-02-24 09:36:00,
2013-02-24 01:41:00,21.4,15.0,30.36,South,188,0.0,0.0,76,0.00,,---,0.00,VWS V14.00,2013-02-24 09:41:00,
2013-02-24 01:46:00,21.6,15.2,30.36,South,188,0.0,1.0,76,0.00,,---,0.00,VWS V14.00,2013-02-24 09:46:00,
2013-02-24 01:51:00,21.6,15.2,30.36,South,188,0.0,0.0,76,0.00,,---,0.00,VWS V14.00,2013-02-24 09:51:00,
2013-02-24 01:56:00,21.4,15.0,30.36,South,188,0.0,0.0,76,0.00,,---,0.00,VWS V14.00,2013-02-24 09:56:00,
2013-02-24 02:01:00,21.3,14.9,30.36,South,188,0.0,0.0,76,0.00,,---,0.00,VWS V14.00,2013-02-24 10:01:00,
2013-02-24 02:06:00,21.1,14.7,30.36,South,188,0.0,1.0,76,0.00,,---,0.00,VWS V14.00,2013-02-24 10:06:00,
2013-02-24 02:11:00,22.2,15.5,30.36,South,188,0.0,2.0,75,0.00,,---,0.00,VWS V14.00,2013-02-24 10:11:00,
2013-02-24 02:16:00,22.7,16.0,30.35,South,188,0.0,2.0,75,0.00,,---,0.00,VWS V14.00,2013-02-24 10:16:00,
2013-02-24 02:21:00,23.2,15.8,30.35,South,189,2.0,2.0,73,0.00,,---,0.00,VWS V14.00,2013-02-24 10:21:00,
2013-02-24 02:27:00,23.6,16.2,30.35,South,191,0.0,5.0,73,0.00,,---,0.00,VWS V14.00,2013-02-24 10:27:00,
2013-02-24 02:32:00,23.5,16.1,30.35,South,191,0.0,0.0,73,0.00,,---,0.00,VWS V14.00,2013-02-24 10:32:00,
2013-02-24 02:37:00,22.9,15.9,30.35,South,191,0.0,2.0,74,0.00,,---,0.00,VWS V14.00,2013-02-24 10:37:00,
2013-02-24 02:42:00,22.2,15.5,30.35,South,191,0.0,2.0,75,0.00,,---,0.00,VWS V14.00,2013-02-24 10:42:00,
2013-02-24 02:47:00,21.8,15.1,30.35,South,191,0.0,2.0,75,0.00,,---,0.00,VWS V14.00,2013-02-24 10:47:00,
2013-02-24 02:52:00,21.3,14.6,30.35,South,191,0.0,2.0,75,0.00,,---,0.00,VWS V14.00,2013-02-24 10:52:00,
2013-02-24 02:57:00,21.0,14.6,30.35,South,191,1.0,2.0,76,0.00,,---,0.00,VWS V14.00,2013-02-24 10:57:00,
2013-02-24 03:02:00,20.8,14.4,30.35,South,191,0.0,1.0,76,0.00,,---,0.00,VWS V14.00,2013-02-24 11:02:00,
2013-02-24 03:07:00,20.8,14.4,30.35,South,191,0.0,2.0,76,0.00,,---,0.00,VWS V14.00,2013-02-24 11:07:00,
2013-02-24 03:12:00,20.6,14.2,30.35,South,191,0.0,2.0,76,0.00,,---,0.00,VWS V14.00,2013-02-24 11:12:00,
2013-02-24 03:17:00,20.5,14.4,30.36,South,191,0.0,2.0,77,0.00,,---,0.00,VWS V14.00,2013-02-24 11:17:00,
2013-02-24 03:22:00,20.3,14.0,30.36,South,191,1.0,2.0,76,0.00,,---,0.00,VWS V14.00,2013-02-24 11:22:00,
2013-02-24 03:27:00,20.2,14.2,30.36,South,191,1.0,3.0,77,0.00,,---,0.00,VWS V14.00,2013-02-24 11:27:00,
2013-02-24 03:32:00,20.2,13.9,30.37,South,191,3.0,7.0,76,0.00,,---,0.00,VWS V14.00,2013-02-24 11:32:00,
2013-02-24 03:37:00,20.2,13.6,30.37,SSW,192,2.0,7.0,75,0.00,,---,0.00,VWS V14.00,2013-02-24 11:37:00,
2013-02-24 03:42:00,20.2,13.9,30.37,South,186,2.0,4.0,76,0.00,,---,0.00,VWS V14.00,2013-02-24 11:42:00,
2013-02-24 03:47:00,20.2,13.9,30.37,South,186,0.0,4.0,76,0.00,,---,0.00,VWS V14.00,2013-02-24 11:47:00,
2013-02-24 03:52:00,20.0,13.7,30.37,South,186,0.0,0.0,76,0.00,,---,0.00,VWS V14.00,2013-02-24 11:52:00,
2013-02-24 03:57:00,20.0,13.7,30.37,South,186,0.0,2.0,76,0.00,,---,0.00,VWS V14.00,2013-02-24 11:57:00,
2013-02-24 04:02:00,20.0,13.7,30.38,South,186,0.0,0.0,76,0.00,,---,0.00,VWS V14.00,2013-02-24 12:02:00,
2013-02-24 04:07:00,20.0,13.7,30.38,South,186,0.0,0.0,76,0.00,,---,0.00,VWS V14.00,2013-02-24 12:07:00,
2013-02-24 04:13:00,20.0,13.7,30.38,South,186,2.0,2.0,76,0.00,,---,0.00,VWS V14.00,2013-02-24 12:13:00,
2013-02-24 04:18:00,20.0,13.4,30.38,South,186,0.0,2.0,75,0.00,,---,0.00,VWS V14.00,2013-02-24 12:18:00,
2013-02-24 04:23:00,20.0,13.7,30.38,South,186,0.0,2.0,76,0.00,,---,0.00,VWS V14.00,2013-02-24 12:23:00,
2013-02-24 04:28:00,20.0,13.7,30.38,South,186,0.0,2.0,76,0.00,,---,0.00,VWS V14.00,2013-02-24 12:28:00,
2013-02-24 04:33:00,19.7,13.1,30.38,South,186,0.0,0.0,75,0.00,,---,0.00,VWS V14.00,2013-02-24 12:33:00,
2013-02-24 04:38:00,19.4,13.1,30.38,South,186,0.0,0.0,76,0.00,,---,0.00,VWS V14.00,2013-02-24 12:38:00,
2013-02-24 04:44:00,19.2,13.2,30.38,South,186,0.0,0.0,77,0.00,,---,0.00,VWS V14.00,2013-02-24 12:44:00,
2013-02-24 04:49:00,19.1,13.1,30.38,South,186,0.0,0.0,77,0.00,,---,0.00,VWS V14.00,2013-02-24 12:49:00,
2013-02-24 04:54:00,18.9,12.9,30.38,South,186,0.0,0.0,77,0.00,,---,0.00,VWS V14.00,2013-02-24 12:54:00,
2013-02-24 04:59:00,19.4,13.4,30.38,South,186,0.0,2.0,77,0.00,,---,0.00,VWS V14.00,2013-02-24 12:59:00,
2013-02-24 05:04:00,19.5,13.5,30.38,South,186,0.0,0.0,77,0.00,,---,0.00,VWS V14.00,2013-02-24 13:04:00,
2013-02-24 05:09:00,19.7,14.0,30.38,South,186,0.0,0.0,78,0.00,,---,0.00,VWS V14.00,2013-02-24 13:09:00,
2013-02-24 05:14:00,19.7,14.0,30.38,South,186,0.0,0.0,78,0.00,,---,0.00,VWS V14.00,2013-02-24 13:14:00,
2013-02-24 05:19:00,20.2,14.2,30.38,South,188,0.0,2.0,77,0.00,,---,0.00,VWS V14.00,2013-02-24 13:19:00,
2013-02-24 05:25:00,20.6,14.2,30.38,South,186,0.0,3.0,76,0.00,,---,0.00,VWS V14.00,2013-02-24 13:25:00,
2013-02-24 05:30:00,20.6,13.9,30.38,South,186,0.0,3.0,75,0.00,,---,0.00,VWS V14.00,2013-02-24 13:30:00,
2013-02-24 05:35:00,20.5,13.9,30.38,South,186,0.0,0.0,75,0.00,,---,0.00,VWS V14.00,2013-02-24 13:35:00,
2013-02-24 05:40:00,20.3,13.7,30.38,South,186,0.0,0.0,75,0.00,,---,0.00,VWS V14.00,2013-02-24 13:40:00,
2013-02-24 05:45:00,20.2,13.9,30.39,South,186,0.0,0.0,76,0.00,,---,0.00,VWS V14.00,2013-02-24 13:45:00,
2013-02-24 05:50:00,20.0,13.7,30.39,South,186,0.0,0.0,76,0.00,,---,0.00,VWS V14.00,2013-02-24 13:50:00,
2013-02-24 05:55:00,19.9,13.6,30.39,South,186,0.0,0.0,76,0.00,,---,0.00,VWS V14.00,2013-02-24 13:55:00,
2013-02-24 06:01:00,19.7,13.4,30.39,South,186,0.0,0.0,76,0.00,,---,0.00,VWS V14.00,2013-02-24 14:01:00,
2013-02-24 06:06:00,19.7,13.4,30.39,South,186,0.0,2.0,76,0.00,,---,0.00,VWS V14.00,2013-02-24 14:06:00,
2013-02-24 06:11:00,19.7,13.4,30.39,South,186,0.0,0.0,76,0.00,,---,0.00,VWS V14.00,2013-02-24 14:11:00,
2013-02-24 06:16:00,20.6,13.6,30.40,South,186,1.0,5.0,74,0.00,,---,0.00,VWS V14.00,2013-02-24 14:16:00,
2013-02-24 06:21:00,21.1,14.1,30.40,South,191,3.0,3.0,74,0.00,,---,0.00,VWS V14.00,2013-02-24 14:21:00,
2013-02-24 06:26:00,21.4,14.1,30.40,South,189,2.0,5.0,73,0.00,,---,0.00,VWS V14.00,2013-02-24 14:26:00,
2013-02-24 06:31:00,21.4,14.1,30.40,South,191,0.0,0.0,73,0.00,,---,0.00,VWS V14.00,2013-02-24 14:31:00,
2013-02-24 06:36:00,21.4,14.1,30.40,South,191,0.0,0.0,73,0.00,,---,0.00,VWS V14.00,2013-02-24 14:36:00,
2013-02-24 06:42:00,21.3,14.0,30.40,South,191,0.0,0.0,73,0.00,,---,0.00,VWS V14.00,2013-02-24 14:42:00,
2013-02-24 06:47:00,21.0,13.7,30.40,South,191,0.0,0.0,73,0.00,,---,0.00,VWS V14.00,2013-02-24 14:47:00,
2013-02-24 06:52:00,20.6,13.6,30.40,South,191,0.0,0.0,74,0.00,,---,0.00,VWS V14.00,2013-02-24 14:52:00,
2013-02-24 06:57:00,20.5,13.5,30.40,South,191,1.0,3.0,74,0.00,,---,0.00,VWS V14.00,2013-02-24 14:57:00,
2013-02-24 07:02:00,20.2,12.9,30.40,SSW,193,5.0,5.0,73,0.00,,---,0.00,VWS V14.00,2013-02-24 15:02:00,
2013-02-24 07:07:00,19.9,13.0,30.40,SSW,203,2.0,6.0,74,0.00,,---,0.00,VWS V14.00,2013-02-24 15:07:00,
2013-02-24 07:12:00,19.7,12.8,30.40,SSW,203,0.0,2.0,74,0.00,,---,0.00,VWS V14.00,2013-02-24 15:12:00,
2013-02-24 07:17:00,19.7,12.8,30.41,SSW,203,0.0,3.0,74,0.00,,---,0.00,VWS V14.00,2013-02-24 15:17:00,
2013-02-24 07:22:00,20.0,12.8,30.41,SSW,198,2.0,5.0,73,0.00,,---,0.00,VWS V14.00,2013-02-24 15:22:00,
2013-02-24 07:28:00,20.2,12.9,30.41,SSW,198,2.0,5.0,73,0.00,,---,0.00,VWS V14.00,2013-02-24 15:28:00,
2013-02-24 07:33:00,20.3,13.0,30.41,SSW,192,0.0,3.0,73,0.00,,---,0.00,VWS V14.00,2013-02-24 15:33:00,
2013-02-24 07:38:00,20.3,13.0,30.41,SSW,192,0.0,3.0,73,0.00,,---,0.00,VWS V14.00,2013-02-24 15:38:00,
2013-02-24 07:43:00,20.6,13.3,30.41,SSW,192,0.0,5.0,73,0.00,,---,0.00,VWS V14.00,2013-02-24 15:43:00,
2013-02-24 07:48:00,21.1,13.5,30.41,SSW,192,2.0,6.0,72,0.00,,---,0.00,VWS V14.00,2013-02-24 15:48:00,
2013-02-24 07:53:00,21.4,13.8,30.41,SSW,192,2.0,7.0,72,0.00,,---,0.00,VWS V14.00,2013-02-24 15:53:00,
2013-02-24 07:58:00,21.8,13.9,30.41,SSW,192,4.0,7.0,71,0.00,,---,0.00,VWS V14.00,2013-02-24 15:58:00,
2013-02-24 08:03:00,22.1,13.5,30.41,SSW,195,2.0,5.0,69,0.00,,---,0.00,VWS V14.00,2013-02-24 16:03:00,
2013-02-24 08:08:00,22.2,13.6,30.41,South,191,3.0,6.0,69,0.00,,---,0.00,VWS V14.00,2013-02-24 16:08:00,
2013-02-24 08:13:00,23.0,14.0,30.41,SSW,195,3.0,7.0,68,0.00,,---,0.00,VWS V14.00,2013-02-24 16:13:00,
2013-02-24 08:18:00,23.5,15.2,30.40,SSW,202,7.0,7.0,70,0.00,,---,0.00,VWS V14.00,2013-02-24 16:18:00,
2013-02-24 08:23:00,23.5,13.8,30.40,South,191,6.0,7.0,66,0.00,,---,0.00,VWS V14.00,2013-02-24 16:23:00,
2013-02-24 08:28:00,23.6,14.6,30.40,South,191,8.0,8.0,68,0.00,,---,0.00,VWS V14.00,2013-02-24 16:28:00,
2013-02-24 08:33:00,24.1,15.1,30.40,SSW,199,3.0,7.0,68,0.00,,---,0.00,VWS V14.00,2013-02-24 16:33:00,
2013-02-24 08:39:00,24.1,14.7,30.40,South,186,6.0,12.0,67,0.00,,---,0.00,VWS V14.00,2013-02-24 16:39:00,
2013-02-24 08:44:00,24.2,14.8,30.40,South,191,5.0,7.0,67,0.00,,---,0.00,VWS V14.00,2013-02-24 16:44:00,
2013-02-24 08:49:00,24.2,14.1,30.40,South,186,4.0,7.0,65,0.00,,---,0.00,VWS V14.00,2013-02-24 16:49:00,
2013-02-24 08:54:00,24.4,14.3,30.40,South,191,5.0,6.0,65,0.00,,---,0.00,VWS V14.00,2013-02-24 16:54:00,
2013-02-24 08:59:00,24.5,14.8,30.40,SW,215,2.0,6.0,66,0.00,,---,0.00,VWS V14.00,2013-02-24 16:59:00,
2013-02-24 09:04:00,24.8,14.7,30.39,SW,215,2.0,5.0,65,0.00,,---,0.00,VWS V14.00,2013-02-24 17:04:00,
2013-02-24 09:09:00,25.1,15.4,30.39,SW,215,2.0,6.0,66,0.00,,---,0.00,VWS V14.00,2013-02-24 17:09:00,
2013-02-24 09:14:00,25.3,15.2,30.39,SSW,213,3.0,5.0,65,0.00,,---,0.00,VWS V14.00,2013-02-24 17:14:00,
2013-02-24 09:19:00,25.4,15.3,30.39,SSE,162,2.0,6.0,65,0.00,,---,0.00,VWS V14.00,2013-02-24 17:19:00,
2013-02-24 09:24:00,25.6,15.5,30.39,SSW,193,2.0,7.0,65,0.00,,---,0.00,VWS V14.00,2013-02-24 17:24:00,
2013-02-24 09:29:00,25.7,15.2,30.39,South,171,4.0,7.0,64,0.00,,---,0.00,VWS V14.00,2013-02-24 17:29:00,
2013-02-24 09:34:00,26.0,15.9,30.39,SSW,196,5.0,6.0,65,0.00,,---,0.00,VWS V14.00,2013-02-24 17:34:00,
2013-02-24 09:39:00,26.1,15.6,30.39,SSW,195,2.0,6.0,64,0.00,,---,0.00,VWS V14.00,2013-02-24 17:39:00,
2013-02-24 09:44:00,26.3,15.8,30.39,South,184,2.0,7.0,64,0.00,,---,0.00,VWS V14.00,2013-02-24 17:44:00,
2013-02-24 09:49:00,26.3,16.1,30.39,South,186,6.0,7.0,65,0.00,,---,0.00,VWS V14.00,2013-02-24 17:49:00,
2013-02-24 09:55:00,26.7,16.2,30.39,South,188,7.0,7.0,64,0.00,,---,0.00,VWS V14.00,2013-02-24 17:55:00,
2013-02-24 10:00:00,26.6,15.0,30.37,SSW,195,6.0,10.0,61,0.00,,---,0.00,VWS V14.00,2013-02-24 18:00:00,
2013-02-24 10:05:00,26.6,16.1,30.37,South,188,7.0,7.0,64,0.00,,---,0.00,VWS V14.00,2013-02-24 18:05:00,
2013-02-24 10:10:00,26.6,16.1,30.37,SSW,193,8.0,8.0,64,0.00,,---,0.00,VWS V14.00,2013-02-24 18:10:00,
2013-02-24 10:15:00,26.6,15.4,30.38,SSW,193,5.0,7.0,62,0.00,,---,0.00,VWS V14.00,2013-02-24 18:15:00,
2013-02-24 10:20:00,27.0,15.4,30.38,South,191,6.0,7.0,61,0.00,,---,0.00,VWS V14.00,2013-02-24 18:20:00,
2013-02-24 10:25:00,27.6,15.2,30.38,South,188,8.0,8.0,59,0.00,,---,0.00,VWS V14.00,2013-02-24 18:25:00,
2013-02-24 10:30:00,28.1,14.8,30.37,SW,223,2.0,3.0,57,0.00,,---,0.00,VWS V14.00,2013-02-24 18:30:00,
2013-02-24 10:36:00,28.5,14.8,30.37,South,188,5.0,7.0,56,0.00,,---,0.00,VWS V14.00,2013-02-24 18:36:00,
2013-02-24 10:41:00,28.8,13.8,30.37,South,172,6.0,6.0,53,0.00,,---,0.00,VWS V14.00,2013-02-24 18:41:00,
2013-02-24 10:46:00,29.0,14.0,30.35,South,185,2.0,11.0,53,0.00,,---,0.00,VWS V14.00,2013-02-24 18:46:00,
2013-02-24 10:51:00,29.3,15.1,30.35,SSW,200,8.0,12.0,55,0.00,,---,0.00,VWS V14.00,2013-02-24 18:51:00,
2013-02-24 10:56:00,29.5,14.9,30.35,South,182,6.0,12.0,54,0.00,,---,0.00,VWS V14.00,2013-02-24 18:56:00,
2013-02-24 11:01:00,29.7,15.1,30.35,SSW,200,8.0,8.0,54,0.00,,---,0.00,VWS V14.00,2013-02-24 19:01:00,
2013-02-24 11:06:00,29.5,14.9,30.35,SSW,209,8.0,12.0,54,0.00,,---,0.00,VWS V14.00,2013-02-24 19:06:00,
2013-02-24 11:11:00,29.7,15.1,30.35,SSW,208,11.0,11.0,54,0.00,,---,0.00,VWS V14.00,2013-02-24 19:11:00,
2013-02-24 11:16:00,29.8,12.0,30.35,SSW,196,7.0,13.0,47,0.00,,---,0.00,VWS V14.00,2013-02-24 19:16:00,
2013-02-24 11:21:00,30.3,12.5,30.35,South,191,8.0,8.0,47,0.00,,---,0.00,VWS V14.00,2013-02-24 19:21:00,
2013-02-24 11:26:00,30.4,12.6,30.35,SSE,168,7.0,11.0,47,0.00,,---,0.00,VWS V14.00,2013-02-24 19:26:00,
2013-02-24 11:32:00,30.6,12.8,30.35,South,188,6.0,6.0,47,0.00,,---,0.00,VWS V14.00,2013-02-24 19:32:00,
2013-02-24 11:37:00,30.9,14.5,30.35,SSW,202,7.0,12.0,50,0.00,,---,0.00,VWS V14.00,2013-02-24 19:37:00,
2013-02-24 11:42:00,31.3,14.8,30.35,SSW,202,7.0,8.0,50,0.00,,---,0.00,VWS V14.00,2013-02-24 19:42:00,
2013-02-24 11:47:00,31.6,13.7,30.34,SW,216,3.0,8.0,47,0.00,,---,0.00,VWS V14.00,2013-02-24 19:47:00,
2013-02-24 11:52:00,31.6,13.7,30.34,SW,224,2.0,2.0,47,0.00,,---,0.00,VWS V14.00,2013-02-24 19:52:00,
2013-02-24 11:57:00,33.2,15.2,30.34,SSW,200,7.0,8.0,47,0.00,,---,0.00,VWS V14.00,2013-02-24 19:57:00,
2013-02-24 12:02:00,33.1,14.6,30.34,South,184,5.0,7.0,46,0.00,,---,0.00,VWS V14.00,2013-02-24 20:02:00,
2013-02-24 12:07:00,33.7,16.6,30.34,SSW,196,8.0,8.0,49,0.00,,---,0.00,VWS V14.00,2013-02-24 20:07:00,
2013-02-24 12:12:00,33.5,16.4,30.34,SSW,210,8.0,8.0,49,0.00,,---,0.00,VWS V14.00,2013-02-24 20:12:00,
2013-02-24 12:17:00,34.3,17.1,30.32,SSW,213,5.0,14.0,49,0.00,,---,0.00,VWS V14.00,2013-02-24 20:17:00,
2013-02-24 12:23:00,35.9,15.1,30.32,South,189,8.0,12.0,42,0.00,,---,0.00,VWS V14.00,2013-02-24 20:23:00,
2013-02-24 12:28:00,36.0,15.1,30.32,SSW,195,12.0,19.0,42,0.00,,---,0.00,VWS V14.00,2013-02-24 20:28:00,
2013-02-24 12:33:00,36.3,15.4,30.31,South,186,4.0,8.0,42,0.00,,---,0.00,VWS V14.00,2013-02-24 20:33:00,
2013-02-24 12:38:00,36.9,18.1,30.31,South,184,7.0,10.0,46,0.00,,---,0.00,VWS V14.00,2013-02-24 20:38:00,
2013-02-24 12:43:00,36.2,16.4,30.31,SSW,193,6.0,10.0,44,0.00,,---,0.00,VWS V14.00,2013-02-24 20:43:00,
2013-02-24 12:48:00,36.3,16.5,30.30,South,191,5.0,10.0,44,0.00,,---,0.00,VWS V14.00,2013-02-24 20:48:00,
2013-02-24 12:53:00,36.3,16.0,30.30,South,182,0.0,6.0,43,0.00,,---,0.00,VWS V14.00,2013-02-24 20:53:00,
2013-02-24 12:58:00,35.9,15.6,30.30,South,189,3.0,6.0,43,0.00,,---,0.00,VWS V14.00,2013-02-24 20:58:00,
2013-02-24 13:03:00,36.0,16.2,30.29,South,185,3.0,5.0,44,0.00,,---,0.00,VWS V14.00,2013-02-24 21:03:00,
2013-02-24 13:08:00,36.0,17.2,30.29,SSE,161,5.0,7.0,46,0.00,,---,0.00,VWS V14.00,2013-02-24 21:08:00,
2013-02-24 13:13:00,36.8,17.0,30.29,SSW,196,7.0,7.0,44,0.00,,---,0.00,VWS V14.00,2013-02-24 21:13:00,
2013-02-24 13:18:00,37.6,16.6,30.27,SSW,198,6.0,7.0,42,0.00,,---,0.00,VWS V14.00,2013-02-24 21:18:00,
2013-02-24 13:23:00,38.5,18.5,30.27,South,191,5.0,7.0,44,0.00,,---,0.00,VWS V14.00,2013-02-24 21:23:00,
2013-02-24 13:28:00,38.8,18.8,30.27,SSW,195,5.0,10.0,44,0.00,,---,0.00,VWS V14.00,2013-02-24 21:28:00,
2013-02-24 13:33:00,39.3,18.7,30.25,SSW,196,0.0,6.0,43,0.00,,---,0.00,VWS V14.00,2013-02-24 21:33:00,
2013-02-24 13:38:00,39.9,19.2,30.25,South,176,6.0,7.0,43,0.00,,---,0.00,VWS V14.00,2013-02-24 21:38:00,
2013-02-24 13:43:00,40.5,19.8,30.25,South,189,10.0,10.0,43,0.00,,---,0.00,VWS V14.00,2013-02-24 21:43:00,
2013-02-24 13:48:00,40.5,20.9,30.24,South,189,2.0,10.0,45,0.00,,---,0.00,VWS V14.00,2013-02-24 21:48:00,
2013-02-24 13:54:00,40.8,19.5,30.24,South,186,6.0,10.0,42,0.00,,---,0.00,VWS V14.00,2013-02-24 21:54:00,
2013-02-24 13:59:00,40.5,17.5,30.24,SSW,192,7.0,12.0,39,0.00,,---,0.00,VWS V14.00,2013-02-24 21:59:00,
2013-02-24 14:04:00,40.8,20.6,30.23,South,186,5.0,8.0,44,0.00,,---,0.00,VWS V14.00,2013-02-24 22:04:00,
2013-02-24 14:09:00,41.1,20.3,30.23,SSW,192,6.0,12.0,43,0.00,,---,0.00,VWS V14.00,2013-02-24 22:09:00,
2013-02-24 14:14:00,41.2,19.9,30.23,SSW,200,5.0,7.0,42,0.00,,---,0.00,VWS V14.00,2013-02-24 22:14:00,
2013-02-24 14:19:00,41.6,20.2,30.22,SW,223,2.0,7.0,42,0.00,,---,0.00,VWS V14.00,2013-02-24 22:19:00,
2013-02-24 14:24:00,42.1,20.7,30.22,SSW,195,2.0,7.0,42,0.00,,---,0.00,VWS V14.00,2013-02-24 22:24:00,
2013-02-24 14:29:00,42.3,18.5,30.22,SW,217,5.0,7.0,38,0.00,,---,0.00,VWS V14.00,2013-02-24 22:29:00,
2013-02-24 14:34:00,42.3,18.5,30.22,South,181,8.0,8.0,38,0.00,,---,0.00,VWS V14.00,2013-02-24 22:34:00,
2013-02-24 14:39:00,42.2,18.4,30.22,South,188,7.0,10.0,38,0.00,,---,0.00,VWS V14.00,2013-02-24 22:39:00,
2013-02-24 14:44:00,42.3,19.7,30.22,SSW,200,7.0,10.0,40,0.00,,---,0.00,VWS V14.00,2013-02-24 22:44:00,
2013-02-24 14:49:00,42.8,19.6,30.22,South,188,7.0,10.0,39,0.00,,---,0.00,VWS V14.00,2013-02-24 22:49:00,
2013-02-24 14:54:00,43.3,20.0,30.22,South,191,2.0,6.0,39,0.00,,---,0.00,VWS V14.00,2013-02-24 22:54:00,
2013-02-24 14:59:00,43.2,21.7,30.22,South,189,7.0,14.0,42,0.00,,---,0.00,VWS V14.00,2013-02-24 22:59:00,
2013-02-24 15:04:00,42.5,21.0,30.20,SSW,200,7.0,10.0,42,0.00,,---,0.00,VWS V14.00,2013-02-24 23:04:00,
2013-02-24 15:09:00,42.9,21.4,30.20,SSW,198,7.0,11.0,42,0.00,,---,0.00,VWS V14.00,2013-02-24 23:09:00,
2013-02-24 15:14:00,43.2,24.9,30.20,South,189,8.0,14.0,48,0.00,,---,0.00,VWS V14.00,2013-02-24 23:14:00,
2013-02-24 15:19:00,43.3,23.4,30.20,South,184,7.0,14.0,45,0.00,,---,0.00,VWS V14.00,2013-02-24 23:19:00,
2013-02-24 15:25:00,43.3,23.4,30.20,South,189,5.0,13.0,45,0.00,,---,0.00,VWS V14.00,2013-02-24 23:25:00,
2013-02-24 15:30:00,43.3,23.9,30.20,SW,220,7.0,13.0,46,0.00,,---,0.00,VWS V14.00,2013-02-24 23:30:00,
2013-02-24 15:35:00,43.3,23.9,30.20,SSW,200,12.0,14.0,46,0.00,,---,0.00,VWS V14.00,2013-02-24 23:35:00,
2013-02-24 15:40:00,43.3,23.4,30.20,SSW,193,12.0,14.0,45,0.00,,---,0.00,VWS V14.00,2013-02-24 23:40:00,
2013-02-24 15:45:00,43.3,23.9,30.19,SSW,196,7.0,16.0,46,0.00,,---,0.00,VWS V14.00,2013-02-24 23:45:00,
2013-02-24 15:50:00,43.1,23.2,30.19,South,188,3.0,16.0,45,0.00,,---,0.00,VWS V14.00,2013-02-24 23:50:00,
2013-02-24 15:55:00,43.1,23.2,30.19,South,188,4.0,4.0,45,0.00,,---,0.00,VWS V14.00,2013-02-24 23:55:00,
2013-02-24 16:00:00,43.1,23.7,30.19,South,184,5.0,7.0,46,0.00,,---,0.00,VWS V14.00,2013-02-25 00:00:00,
2013-02-24 16:05:00,43.1,25.7,30.19,South,186,2.0,5.0,50,0.00,,---,0.00,VWS V14.00,2013-02-25 00:05:00,
2013-02-24 16:10:00,43.1,24.3,30.19,SSW,200,8.0,8.0,47,0.00,,---,0.00,VWS V14.00,2013-02-25 00:10:00,
2013-02-24 16:15:00,42.9,24.6,30.17,South,185,10.0,10.0,48,0.00,,---,0.00,VWS V14.00,2013-02-25 00:15:00,
2013-02-24 16:20:00,42.6,24.3,30.17,SSW,196,10.0,17.0,48,0.00,,---,0.00,VWS V14.00,2013-02-25 00:20:00,
2013-02-24 16:25:00,42.6,24.8,30.17,SSW,193,10.0,10.0,49,0.00,,---,0.00,VWS V14.00,2013-02-25 00:25:00,
2013-02-24 16:30:00,42.6,25.8,30.17,SSW,199,6.0,10.0,51,0.00,,---,0.00,VWS V14.00,2013-02-25 00:30:00,
2013-02-24 16:35:00,43.2,26.3,30.17,SSW,206,13.0,13.0,51,0.00,,---,0.00,VWS V14.00,2013-02-25 00:35:00,
2013-02-24 16:40:00,43.3,25.4,30.17,South,186,4.0,13.0,49,0.00,,---,0.00,VWS V14.00,2013-02-25 00:40:00,
2013-02-24 16:45:00,43.5,24.6,30.16,South,182,7.0,13.0,47,0.00,,---,0.00,VWS V14.00,2013-02-25 00:45:00,
2013-02-24 16:50:00,43.5,24.6,30.16,SSW,195,3.0,13.0,47,0.00,,---,0.00,VWS V14.00,2013-02-25 00:50:00,
2013-02-24 16:55:00,43.3,24.4,30.16,South,191,10.0,10.0,47,0.00,,---,0.00,VWS V14.00,2013-02-25 00:55:00,
2013-02-24 17:00:00,43.1,25.3,30.16,SSW,192,2.0,2.0,49,0.00,,---,0.00,VWS V14.00,2013-02-25 01:00:00,
2013-02-24 17:05:00,43.1,25.3,30.16,SSW,209,6.0,7.0,49,0.00,,---,0.00,VWS V14.00,2013-02-25 01:05:00,
2013-02-24 17:10:00,42.8,25.5,30.16,South,181,2.0,2.0,50,0.00,,---,0.00,VWS V14.00,2013-02-25 01:10:00,
2013-02-24 17:16:00,42.6,25.3,30.15,SSW,192,7.0,8.0,50,0.00,,---,0.00,VWS V14.00,2013-02-25 01:16:00,
2013-02-24 17:21:00,42.1,24.3,30.15,SSW,200,4.0,5.0,49,0.00,,---,0.00,VWS V14.00,2013-02-25 01:21:00,
2013-02-24 17:26:00,41.9,23.7,30.15,SSW,198,4.0,5.0,48,0.00,,---,0.00,VWS V14.00,2013-02-25 01:26:00,
2013-02-24 17:31:00,41.3,25.0,30.15,SSW,198,2.0,5.0,52,0.00,,---,0.00,VWS V14.00,2013-02-25 01:31:00,
2013-02-24 17:36:00,41.1,24.4,30.15,SSW,192,3.0,5.0,51,0.00,,---,0.00,VWS V14.00,2013-02-25 01:36:00,
2013-02-24 17:41:00,41.1,24.4,30.15,SSW,192,3.0,3.0,51,0.00,,---,0.00,VWS V14.00,2013-02-25 01:41:00,
2013-02-24 17:46:00,41.1,24.4,30.16,SSW,192,3.0,3.0,51,0.00,,---,0.00,VWS V14.00,2013-02-25 01:46:00,
2013-02-24 17:51:00,41.1,24.4,30.16,SSW,192,3.0,3.0,51,0.00,,---,0.00,VWS V14.00,2013-02-25 01:51:00,
2013-02-24 17:57:00,41.1,24.4,30.16,SSW,192,3.0,3.0,51,0.00,,---,0.00,VWS V14.00,2013-02-25 01:57:00,
2013-02-24 18:02:00,39.2,26.1,30.23,South,191,3.0,3.0,59,0.00,,---,0.00,VWS V14.00,2013-02-25 02:02:00,
2013-02-24 18:07:00,39.2,26.1,30.23,South,191,3.0,4.0,59,0.00,,---,0.00,VWS V14.00,2013-02-25 02:07:00,
2013-02-24 18:12:00,38.5,26.2,30.23,South,189,2.0,3.0,61,0.00,,---,0.00,VWS V14.00,2013-02-25 02:12:00,
2013-02-24 18:17:00,38.5,26.2,30.16,South,189,4.0,5.0,61,0.00,,---,0.00,VWS V14.00,2013-02-25 02:17:00,
2013-02-24 18:22:00,38.5,27.0,30.16,South,189,2.0,4.0,63,0.00,,---,0.00,VWS V14.00,2013-02-25 02:22:00,
2013-02-24 18:27:00,38.3,26.4,30.16,South,189,5.0,5.0,62,0.00,,---,0.00,VWS V14.00,2013-02-25 02:27:00,
2013-02-24 18:32:00,38.0,26.9,30.16,South,189,2.0,5.0,64,0.00,,---,0.00,VWS V14.00,2013-02-25 02:32:00,
2013-02-24 18:37:00,37.8,26.4,30.16,South,189,2.0,5.0,63,0.00,,---,0.00,VWS V14.00,2013-02-25 02:37:00,
2013-02-24 18:42:00,37.6,26.5,30.16,South,189,2.0,5.0,64,0.00,,---,0.00,VWS V14.00,2013-02-25 02:42:00,
2013-02-24 18:47:00,36.9,26.2,30.17,South,189,0.0,5.0,65,0.00,,---,0.00,VWS V14.00,2013-02-25 02:47:00,
2013-02-24 18:52:00,35.8,25.9,30.17,South,189,0.0,2.0,67,0.00,,---,0.00,VWS V14.00,2013-02-25 02:52:00,
2013-02-24 18:57:00,34.6,25.5,30.17,South,189,1.0,2.0,69,0.00,,---,0.00,VWS V14.00,2013-02-25 02:57:00,
2013-02-24 19:02:00,34.3,25.2,30.17,South,189,0.0,0.0,69,0.00,,---,0.00,VWS V14.00,2013-02-25 03:02:00,
2013-02-24 19:08:00,34.0,25.3,30.17,South,189,0.0,0.0,70,0.00,,---,0.00,VWS V14.00,2013-02-25 03:08:00,
2013-02-24 19:13:00,33.5,25.1,30.17,South,189,2.0,2.0,71,0.00,,---,0.00,VWS V14.00,2013-02-25 03:13:00,
2013-02-24 19:18:00,33.2,24.8,30.16,South,189,0.0,2.0,71,0.00,,---,0.00,VWS V14.00,2013-02-25 03:18:00,
2013-02-24 19:23:00,33.4,25.4,30.16,South,188,2.0,5.0,72,0.00,,---,0.00,VWS V14.00,2013-02-25 03:23:00,
2013-02-24 19:28:00,34.4,26.3,30.16,South,186,2.0,5.0,72,0.00,,---,0.00,VWS V14.00,2013-02-25 03:28:00,
2013-02-24 19:33:00,34.4,26.3,30.16,South,189,6.0,6.0,72,0.00,,---,0.00,VWS V14.00,2013-02-25 03:33:00,
2013-02-24 19:38:00,34.4,26.3,30.16,SSW,193,8.0,8.0,72,0.00,,---,0.00,VWS V14.00,2013-02-25 03:38:00,
2013-02-24 19:43:00,34.4,26.3,30.16,SSW,203,6.0,10.0,72,0.00,,---,0.00,VWS V14.00,2013-02-25 03:43:00,
2013-02-24 19:48:00,38.0,27.3,30.16,SSW,198,8.0,13.0,65,0.00,,---,0.00,VWS V14.00,2013-02-25 03:48:00,
2013-02-24 19:53:00,37.9,27.2,30.16,SSW,199,6.0,6.0,65,0.00,,---,0.00,VWS V14.00,2013-02-25 03:53:00,
2013-02-24 19:58:00,37.9,27.2,30.16,SSW,199,6.0,6.0,65,0.00,,---,0.00,VWS V14.00,2013-02-25 03:58:00,
2013-02-24 20:03:00,37.9,27.2,30.19,SSW,199,6.0,6.0,65,0.00,,---,0.00,VWS V14.00,2013-02-25 04:03:00,
2013-02-24 20:08:00,37.9,27.2,30.19,SSW,199,6.0,6.0,65,0.00,,---,0.00,VWS V14.00,2013-02-25 04:08:00,
2013-02-24 20:13:00,37.9,27.2,30.19,SSW,199,6.0,6.0,65,0.00,,---,0.00,VWS V14.00,2013-02-25 04:13:00,
2013-02-24 20:19:00,37.2,26.9,30.16,SSW,195,3.0,6.0,66,0.00,,---,0.00,VWS V14.00,2013-02-25 04:19:00,
2013-02-24 20:24:00,37.2,26.9,30.16,SSW,209,10.0,14.0,66,0.00,,---,0.00,VWS V14.00,2013-02-25 04:24:00,
2013-02-24 20:29:00,37.0,26.3,30.16,SSW,200,11.0,16.0,65,0.00,,---,0.00,VWS V14.00,2013-02-25 04:29:00,
2013-02-24 20:34:00,37.0,26.0,30.12,SSW,192,8.0,13.0,64,0.00,,---,0.00,VWS V14.00,2013-02-25 04:34:00,
2013-02-24 20:39:00,36.8,25.8,30.12,SSW,195,12.0,18.0,64,0.00,,---,0.00,VWS V14.00,2013-02-25 04:39:00,
2013-02-24 20:44:00,36.6,24.8,30.12,SW,216,6.0,14.0,62,0.00,,---,0.00,VWS V14.00,2013-02-25 04:44:00,
2013-02-24 20:49:00,36.5,24.7,30.12,SSW,192,9.0,14.0,62,0.00,,---,0.00,VWS V14.00,2013-02-25 04:49:00,
2013-02-24 20:54:00,36.8,23.0,30.12,SSW,199,14.0,17.0,57,0.00,,---,0.00,VWS V14.00,2013-02-25 04:54:00,
2013-02-24 20:59:00,36.9,23.5,30.12,SSW,208,12.0,17.0,58,0.00,,---,0.00,VWS V14.00,2013-02-25 04:59:00,
2013-02-24 21:00:00,36.9,23.5,30.12,SSW,208,8.0,19.0,58,0.00,,---,0.00,VWS V14.00,2013-02-25 05:00:00,
2013-02-24 21:01:00,36.9,23.5,30.12,SSW,200,12.0,13.0,58,0.00,,---,0.00,VWS V14.00,2013-02-25 05:01:00,
2013-02-24 21:06:00,36.8,23.0,30.12,South,188,10.0,17.0,57,0.00,,---,0.00,VWS V14.00,2013-02-25 05:06:00,
2013-02-24 21:11:00,36.9,22.7,30.12,SSW,205,17.0,17.0,56,0.00,,---,0.00,VWS V14.00,2013-02-25 05:11:00,
2013-02-24 21:16:00,36.8,22.6,30.11,South,186,8.0,17.0,56,0.00,,---,0.00,VWS V14.00,2013-02-25 05:16:00,
2013-02-24 21:22:00,36.6,22.4,30.11,South,175,6.0,9.0,56,0.00,,---,0.00,VWS V14.00,2013-02-25 05:22:00,
2013-02-24 21:27:00,36.6,22.4,30.11,South,188,3.0,9.0,56,0.00,,---,0.00,VWS V14.00,2013-02-25 05:27:00,
2013-02-24 21:32:00,36.3,22.5,30.11,SSW,196,5.0,5.0,57,0.00,,---,0.00,VWS V14.00,2013-02-25 05:32:00,
2013-02-24 21:37:00,36.2,22.5,30.11,SSW,200,7.0,10.0,57,0.00,,---,0.00,VWS V14.00,2013-02-25 05:37:00,
2013-02-24 21:42:00,36.2,22.5,30.11,South,181,0.0,1.0,57,0.00,,---,0.00,VWS V14.00,2013-02-25 05:42:00,
2013-02-24 21:47:00,36.0,22.3,30.10,South,181,5.0,10.0,57,0.00,,---,0.00,VWS V14.00,2013-02-25 05:47:00,
2013-02-24 21:52:00,35.8,22.5,30.10,SSW,205,12.0,17.0,58,0.00,,---,0.00,VWS V14.00,2013-02-25 05:52:00,
2013-02-24 21:57:00,35.8,22.5,30.10,SSW,192,7.0,19.0,58,0.00,,---,0.00,VWS V14.00,2013-02-25 05:57:00,
2013-02-24 22:02:00,35.6,22.3,30.09,SSW,200,12.0,20.0,58,0.00,,---,0.00,VWS V14.00,2013-02-25 06:02:00,
2013-02-24 22:07:00,35.2,22.3,30.09,SW,220,8.0,20.0,59,0.00,,---,0.00,VWS V14.00,2013-02-25 06:07:00,
2013-02-24 22:12:00,35.0,22.1,30.09,South,172,7.0,17.0,59,0.00,,---,0.00,VWS V14.00,2013-02-25 06:12:00,
2013-02-24 22:17:00,34.6,21.8,30.08,SW,216,7.0,17.0,59,0.00,,---,0.00,VWS V14.00,2013-02-25 06:17:00,
2013-02-24 22:22:00,34.1,21.3,30.08,SW,215,10.0,16.0,59,0.00,,---,0.00,VWS V14.00,2013-02-25 06:22:00,
2013-02-24 22:27:00,34.0,22.7,30.08,South,189,9.0,19.0,63,0.00,,---,0.00,VWS V14.00,2013-02-25 06:27:00,
2013-02-24 22:33:00,34.1,21.7,30.07,SSW,195,7.0,16.0,60,0.00,,---,0.00,VWS V14.00,2013-02-25 06:33:00,
2013-02-24 22:38:00,33.8,21.8,30.07,South,191,12.0,16.0,61,0.00,,---,0.00,VWS V14.00,2013-02-25 06:38:00,
2013-02-24 22:43:00,34.0,22.4,30.07,South,189,5.0,14.0,62,0.00,,---,0.00,VWS V14.00,2013-02-25 06:43:00,
2013-02-24 22:48:00,34.4,22.0,30.06,SSW,193,10.0,17.0,60,0.00,,---,0.00,VWS V14.00,2013-02-25 06:48:00,
2013-02-24 22:53:00,34.6,21.8,30.06,SSW,212,7.0,22.0,59,0.00,,---,0.00,VWS V14.00,2013-02-25 06:53:00,
2013-02-24 22:58:00,34.7,21.9,30.06,SSW,203,7.0,22.0,59,0.00,,---,0.00,VWS V14.00,2013-02-25 06:58:00,
2013-02-24 23:03:00,34.4,22.0,30.06,SSW,193,12.0,17.0,60,0.00,,---,0.00,VWS V14.00,2013-02-25 07:03:00,
2013-02-24 23:08:00,34.1,22.1,30.06,SSW,193,11.0,17.0,61,0.00,,---,0.00,VWS V14.00,2013-02-25 07:08:00,
2013-02-24 23:13:00,33.4,21.8,30.06,SSW,205,8.0,13.0,62,0.00,,---,0.00,VWS V14.00,2013-02-25 07:13:00,
2013-02-24 23:18:00,32.8,22.0,30.06,South,189,11.0,13.0,64,0.00,,---,0.00,VWS V14.00,2013-02-25 07:18:00,
2013-02-24 23:23:00,32.7,21.9,30.06,SSW,193,12.0,12.0,64,0.00,,---,0.00,VWS V14.00,2013-02-25 07:23:00,
2013-02-24 23:28:00,32.7,21.1,30.06,SSW,195,8.0,13.0,62,0.00,,---,0.00,VWS V14.00,2013-02-25 07:28:00,
2013-02-24 23:33:00,32.5,21.3,30.05,South,186,7.0,11.0,63,0.00,,---,0.00,VWS V14.00,2013-02-25 07:33:00,
2013-02-24 23:38:00,32.4,21.2,30.05,South,175,7.0,11.0,63,0.00,,---,0.00,VWS V14.00,2013-02-25 07:38:00,
2013-02-24 23:43:00,32.4,20.9,30.05,SSW,195,9.0,12.0,62,0.00,,---,0.00,VWS V14.00,2013-02-25 07:43:00,
2013-02-24 23:48:00,32.5,21.3,30.05,South,186,8.0,17.0,63,0.00,,---,0.00,VWS V14.00,2013-02-25 07:48:00,
2013-02-24 23:53:00,32.5,21.3,30.05,SSW,208,7.0,13.0,63,0.00,,---,0.00,VWS V14.00,2013-02-25 07:53:00,
2013-02-24 23:59:00,32.8,21.6,30.05,SSW,198,6.0,13.0,63,0.00,,---,0.00,VWS V14.00,2013-02-25 07:59:00,